createdAt,value
2022-09-15T00:01:50.862Z,99298.69
2022-09-15T00:11:55.964Z,99296.97
2022-09-15T00:21:59.589Z,99293.59
2022-09-15T00:32:04.996Z,99289.44
2022-09-15T00:42:15.374Z,99282.66
2022-09-15T00:52:26.667Z,99280.09
2022-09-15T01:02:34.072Z,99283.56
2022-09-15T01:12:40.995Z,99276.72
2022-09-15T01:23:02.954Z,99292.09
2022-09-15T01:33:32.316Z,99284.44
2022-09-15T01:43:40.807Z,99294.69
2022-09-15T01:53:46.937Z,99294.66
2022-09-15T02:03:55.844Z,99279.34
2022-09-15T02:14:11.263Z,99277.63
2022-09-15T02:24:19.579Z,99280.19
2022-09-15T02:34:29.037Z,99282.72
2022-09-15T02:44:33.508Z,99285.31
2022-09-15T02:54:38.416Z,99281.91
2022-09-15T03:04:42.065Z,99308.22
2022-09-15T03:14:47.199Z,99306.56
2022-09-15T03:24:51.747Z,99309.03
2022-09-15T03:34:59.110Z,99319.22
2022-09-15T03:45:03.615Z,99314.94
2022-09-15T03:55:11.016Z,99332.84
2022-09-15T04:05:14.723Z,99340.47
2022-09-15T04:15:20.259Z,99339.63
2022-09-15T04:25:24.138Z,99350.72
2022-09-15T04:35:30.801Z,99359.19
2022-09-15T04:45:40.577Z,99369.44
2022-09-15T04:55:47.531Z,99389.78
2022-09-15T05:05:51.295Z,99392.38
2022-09-15T05:15:56.325Z,99397.53
2022-09-15T05:26:04.122Z,99393.22
2022-09-15T05:36:10.956Z,99412.84
2022-09-15T05:46:16.471Z,99422.19
2022-09-15T05:56:21.772Z,99426.50
2022-09-15T06:06:26.880Z,99440.16
2022-09-15T06:16:34.301Z,99452.09
2022-09-15T06:26:37.986Z,99454.66
2022-09-15T06:36:43.833Z,99469.19
2022-09-15T06:46:47.891Z,99469.31
2022-09-15T06:56:52.998Z,99467.69
2022-09-15T07:06:57.478Z,99476.22
2022-09-15T07:17:02.873Z,99467.72
2022-09-15T07:27:08.232Z,99475.38
2022-09-15T07:37:13.246Z,99485.63
2022-09-15T07:47:16.832Z,99484.78
2022-09-15T07:57:21.998Z,99491.59
2022-09-15T08:07:26.118Z,99505.22
2022-09-15T08:17:31.414Z,99512.91
2022-09-15T08:27:35.087Z,99530.00
2022-09-15T08:37:40.366Z,99530.81
2022-09-15T08:47:48.657Z,99543.63
2022-09-15T08:57:55.592Z,99539.41
2022-09-15T09:08:40.391Z,99544.38
2022-09-15T09:19:05.263Z,99535.84
2022-09-15T09:29:16.485Z,99540.13
2022-09-15T09:39:22.629Z,99541.72
2022-09-15T09:49:28.360Z,99538.25
2022-09-15T09:59:42.037Z,99545.88
2022-09-15T10:09:55.478Z,99537.81
2022-09-15T10:20:00.602Z,99519.59
2022-09-15T10:30:19.744Z,99524.81
2022-09-15T10:40:35.276Z,99527.44
2022-09-15T10:50:51.635Z,99512.75
2022-09-15T11:01:10.802Z,99515.69
2022-09-15T11:11:26.450Z,99526.09
2022-09-15T11:21:39.040Z,99538.50
2022-09-15T11:31:46.184Z,99541.44
2022-09-15T11:41:56.521Z,99547.56
2022-09-15T11:52:09.910Z,99549.81
2022-09-15T12:02:26.627Z,99533.16
2022-09-15T12:12:31.442Z,99523.47
2022-09-15T12:22:42.850Z,99525.81
2022-09-15T12:32:49.147Z,99516.19
2022-09-15T12:42:57.562Z,99513.25
2022-09-15T12:53:04.676Z,99526.94
2022-09-15T13:03:30.010Z,99527.09
2022-09-15T13:13:39.858Z,99523.72
2022-09-15T13:23:48.956Z,99531.78
2022-09-15T13:45:16.139Z,99519.16
2022-09-15T13:55:26.133Z,99525.22
2022-09-15T14:05:35.208Z,99514.78
2022-09-15T14:15:40.693Z,99513.44
2022-09-15T14:25:47.367Z,99515.19
2022-09-15T14:35:51.090Z,99512.84
2022-09-15T14:46:05.416Z,99499.94
2022-09-15T14:56:17.936Z,99498.72
2022-09-15T15:06:29.466Z,99488.34
2022-09-15T15:16:33.601Z,99492.28
2022-09-15T15:26:40.437Z,99487.63
2022-09-15T15:36:46.509Z,99482.34
2022-09-15T15:46:56.894Z,99490.50
2022-09-15T15:57:25.161Z,99505.88
2022-09-15T16:07:33.432Z,99516.41
2022-09-15T16:17:37.318Z,99525.81
2022-09-15T16:27:42.624Z,99522.53
2022-09-15T16:37:47.200Z,99535.53
2022-09-15T16:47:55.202Z,99548.47
2022-09-15T16:57:59.735Z,99529.75
2022-09-15T17:08:05.696Z,99534.13
2022-09-15T17:18:13.348Z,99549.56
2022-09-15T17:28:20.908Z,99544.44
2022-09-15T17:38:27.115Z,99551.31
2022-09-15T17:48:32.145Z,99559.84
2022-09-15T17:58:35.768Z,99571.78
2022-09-15T18:08:41.258Z,99584.63
2022-09-15T18:18:44.972Z,99599.13
2022-09-15T18:28:50.059Z,99613.63
2022-09-15T18:38:53.780Z,99628.91
2022-09-15T18:48:59.147Z,99655.31
2022-09-15T18:59:02.778Z,99667.16
2022-09-15T19:09:07.699Z,99686.53
2022-09-15T19:19:11.570Z,99660.00
2022-09-15T19:29:16.626Z,99671.84
2022-09-15T19:39:20.346Z,99690.44
2022-09-15T19:49:25.897Z,99694.63
2022-09-15T19:59:31.554Z,99685.28
2022-09-15T20:09:38.008Z,99690.38
2022-09-15T20:19:42.029Z,99681.81
2022-09-15T20:29:47.289Z,99689.47
2022-09-15T20:39:51.488Z,99693.72
2022-09-15T20:49:56.562Z,99698.88
2022-09-15T21:00:00.151Z,99704.75
2022-09-15T21:10:06.686Z,99701.28
2022-09-15T21:20:11.172Z,99707.94
2022-09-15T21:30:16.962Z,99712.16
2022-09-15T21:40:20.685Z,99723.22
2022-09-15T21:50:27.210Z,99726.53
2022-09-15T22:00:30.883Z,99741.75
2022-09-15T22:10:36.135Z,99743.56
2022-09-15T22:20:39.735Z,99749.50
2022-09-15T22:30:44.831Z,99747.00
2022-09-15T22:40:48.441Z,99738.44
2022-09-15T22:50:53.605Z,99735.91
2022-09-15T23:01:04.984Z,99736.72
2022-09-15T23:11:12.176Z,99745.13
2022-09-15T23:21:16.063Z,99742.59
2022-09-15T23:31:22.508Z,99741.84
2022-09-15T23:41:26.402Z,99737.53
2022-09-15T23:51:32.250Z,99744.22
